sensor_id;sensor_type;location;lat;lon;timestamp;P1;durP1;ratioP1;P2;durP2;ratioP2
1585;SDS011;786;48.718;9.514;2023-12-07T00:00:09;18.58;;;10.02;;
1585;SDS011;786;48.718;9.514;2023-12-07T00:02:36;13.40;;;9.13;;
1585;SDS011;786;48.718;9.514;2023-12-07T00:05:02;14.30;;;9.13;;
1585;SDS011;786;48.718;9.514;2023-12-07T00:07:29;14.32;;;8.90;;
1585;SDS011;786;48.718;9.514;2023-12-07T00:09:55;11.13;;;8.05;;
1585;SDS011;786;48.718;9.514;2023-12-07T00:12:22;13.95;;;8.77;;
1585;SDS011;786;48.718;9.514;2023-12-07T00:14:48;15.80;;;9.20;;
1585;SDS011;786;48.718;9.514;2023-12-07T00:17:16;15.27;;;9.73;;
1585;SDS011;786;48.718;9.514;2023-12-07T00:19:42;18.05;;;11.95;;
1585;SDS011;786;48.718;9.514;2023-12-07T00:22:08;21.10;;;11.20;;
1585;SDS011;786;48.718;9.514;2023-12-07T00:24:35;19.38;;;10.32;;
1585;SDS011;786;48.718;9.514;2023-12-07T00:27:01;16.58;;;9.82;;
1585;SDS011;786;48.718;9.514;2023-12-07T00:29:28;16.25;;;9.73;;
1585;SDS011;786;48.718;9.514;2023-12-07T00:31:55;21.13;;;11.93;;
1585;SDS011;786;48.718;9.514;2023-12-07T00:34:23;23.17;;;11.65;;
1585;SDS011;786;48.718;9.514;2023-12-07T00:36:49;18.30;;;12.35;;
1585;SDS011;786;48.718;9.514;2023-12-07T00:39:15;15.38;;;10.15;;
1585;SDS011;786;48.718;9.514;2023-12-07T00:41:43;13.02;;;8.27;;
1585;SDS011;786;48.718;9.514;2023-12-07T00:44:09;15.02;;;10.45;;
1585;SDS011;786;48.718;9.514;2023-12-07T00:46:35;22.25;;;13.05;;
1585;SDS011;786;48.718;9.514;2023-12-07T00:49:02;15.30;;;9.80;;
1585;SDS011;786;48.718;9.514;2023-12-07T00:51:29;13.90;;;10.05;;
1585;SDS011;786;48.718;9.514;2023-12-07T00:53:56;15.68;;;10.73;;
1585;SDS011;786;48.718;9.514;2023-12-07T00:56:23;16.80;;;9.60;;
1585;SDS011;786;48.718;9.514;2023-12-07T00:58:49;19.25;;;11.25;;
1585;SDS011;786;48.718;9.514;2023-12-07T01:01:16;19.30;;;11.00;;
1585;SDS011;786;48.718;9.514;2023-12-07T01:03:42;18.08;;;12.10;;
1585;SDS011;786;48.718;9.514;2023-12-07T01:06:09;19.50;;;10.63;;
1585;SDS011;786;48.718;9.514;2023-12-07T01:08:37;14.60;;;9.75;;
1585;SDS011;786;48.718;9.514;2023-12-07T01:11:03;18.83;;;10.82;;
1585;SDS011;786;48.718;9.514;2023-12-07T01:13:29;17.77;;;11.77;;
1585;SDS011;786;48.718;9.514;2023-12-07T01:15:56;16.45;;;10.88;;
1585;SDS011;786;48.718;9.514;2023-12-07T01:18:22;15.57;;;9.77;;
1585;SDS011;786;48.718;9.514;2023-12-07T01:20:49;15.10;;;10.15;;
1585;SDS011;786;48.718;9.514;2023-12-07T01:23:15;18.05;;;11.30;;
1585;SDS011;786;48.718;9.514;2023-12-07T01:25:43;20.60;;;11.98;;
1585;SDS011;786;48.718;9.514;2023-12-07T01:28:09;16.88;;;10.38;;
1585;SDS011;786;48.718;9.514;2023-12-07T01:30:36;16.23;;;10.90;;
1585;SDS011;786;48.718;9.514;2023-12-07T01:33:02;15.98;;;10.48;;
1585;SDS011;786;48.718;9.514;2023-12-07T01:35:29;16.67;;;10.50;;
1585;SDS011;786;48.718;9.514;2023-12-07T01:37:55;20.67;;;9.98;;
1585;SDS011;786;48.718;9.514;2023-12-07T01:40:21;17.38;;;11.00;;
1585;SDS011;786;48.718;9.514;2023-12-07T01:42:50;16.17;;;10.15;;
1585;SDS011;786;48.718;9.514;2023-12-07T01:45:17;17.02;;;10.68;;
1585;SDS011;786;48.718;9.514;2023-12-07T01:47:43;15.90;;;9.98;;
1585;SDS011;786;48.718;9.514;2023-12-07T01:50:10;18.60;;;10.93;;
1585;SDS011;786;48.718;9.514;2023-12-07T01:52:39;14.68;;;9.85;;
1585;SDS011;786;48.718;9.514;2023-12-07T01:55:09;13.98;;;9.52;;
1585;SDS011;786;48.718;9.514;2023-12-07T01:57:36;17.48;;;9.60;;
1585;SDS011;786;48.718;9.514;2023-12-07T02:00:05;19.25;;;10.02;;
1585;SDS011;786;48.718;9.514;2023-12-07T02:02:32;19.13;;;11.63;;
1585;SDS011;786;48.718;9.514;2023-12-07T02:04:58;16.42;;;10.77;;
1585;SDS011;786;48.718;9.514;2023-12-07T02:07:25;16.52;;;10.20;;
1585;SDS011;786;48.718;9.514;2023-12-07T02:09:52;16.63;;;10.13;;
1585;SDS011;786;48.718;9.514;2023-12-07T02:12:18;17.98;;;10.88;;
1585;SDS011;786;48.718;9.514;2023-12-07T02:14:45;15.45;;;9.40;;
1585;SDS011;786;48.718;9.514;2023-12-07T02:17:14;19.67;;;13.15;;
1585;SDS011;786;48.718;9.514;2023-12-07T02:19:49;17.02;;;11.32;;
1585;SDS011;786;48.718;9.514;2023-12-07T02:22:21;16.90;;;11.18;;
1585;SDS011;786;48.718;9.514;2023-12-07T02:24:55;18.73;;;11.88;;
1585;SDS011;786;48.718;9.514;2023-12-07T02:27:39;23.38;;;13.88;;
1585;SDS011;786;48.718;9.514;2023-12-07T02:30:06;22.88;;;12.65;;
1585;SDS011;786;48.718;9.514;2023-12-07T02:32:33;20.02;;;11.38;;
1585;SDS011;786;48.718;9.514;2023-12-07T02:35:00;18.65;;;11.98;;
1585;SDS011;786;48.718;9.514;2023-12-07T02:37:28;13.85;;;9.73;;
1585;SDS011;786;48.718;9.514;2023-12-07T02:39:55;15.30;;;8.90;;
1585;SDS011;786;48.718;9.514;2023-12-07T02:42:22;16.27;;;10.85;;
1585;SDS011;786;48.718;9.514;2023-12-07T02:44:51;15.85;;;10.20;;
1585;SDS011;786;48.718;9.514;2023-12-07T02:47:18;16.08;;;9.55;;
1585;SDS011;786;48.718;9.514;2023-12-07T02:49:44;18.88;;;10.65;;
1585;SDS011;786;48.718;9.514;2023-12-07T02:52:10;14.77;;;9.23;;
1585;SDS011;786;48.718;9.514;2023-12-07T02:54:37;16.38;;;9.45;;
1585;SDS011;786;48.718;9.514;2023-12-07T02:57:03;13.88;;;9.35;;
1585;SDS011;786;48.718;9.514;2023-12-07T02:59:30;16.25;;;9.60;;
1585;SDS011;786;48.718;9.514;2023-12-07T03:01:58;16.38;;;11.60;;
1585;SDS011;786;48.718;9.514;2023-12-07T03:04:24;15.98;;;9.60;;
1585;SDS011;786;48.718;9.514;2023-12-07T03:06:50;16.63;;;9.55;;
1585;SDS011;786;48.718;9.514;2023-12-07T03:09:17;16.95;;;11.18;;
1585;SDS011;786;48.718;9.514;2023-12-07T03:11:43;18.38;;;10.90;;
1585;SDS011;786;48.718;9.514;2023-12-07T03:14:09;17.10;;;10.57;;
1585;SDS011;786;48.718;9.514;2023-12-07T03:16:36;21.38;;;11.98;;
1585;SDS011;786;48.718;9.514;2023-12-07T03:19:03;18.33;;;12.45;;
1585;SDS011;786;48.718;9.514;2023-12-07T03:21:30;17.42;;;10.73;;
1585;SDS011;786;48.718;9.514;2023-12-07T03:23:56;14.02;;;9.23;;
1585;SDS011;786;48.718;9.514;2023-12-07T03:26:23;14.25;;;9.93;;
1585;SDS011;786;48.718;9.514;2023-12-07T03:28:49;14.20;;;9.07;;
1585;SDS011;786;48.718;9.514;2023-12-07T03:31:15;15.18;;;10.02;;
1585;SDS011;786;48.718;9.514;2023-12-07T03:33:42;16.48;;;10.25;;
1585;SDS011;786;48.718;9.514;2023-12-07T03:36:11;14.68;;;10.00;;
1585;SDS011;786;48.718;9.514;2023-12-07T03:38:38;14.75;;;9.43;;
1585;SDS011;786;48.718;9.514;2023-12-07T03:41:04;17.48;;;9.95;;
1585;SDS011;786;48.718;9.514;2023-12-07T03:43:31;15.48;;;9.77;;
1585;SDS011;786;48.718;9.514;2023-12-07T03:45:57;16.10;;;9.82;;
1585;SDS011;786;48.718;9.514;2023-12-07T03:48:23;14.82;;;10.40;;
1585;SDS011;786;48.718;9.514;2023-12-07T03:50:50;13.73;;;10.13;;
1585;SDS011;786;48.718;9.514;2023-12-07T03:53:17;14.55;;;9.45;;
1585;SDS011;786;48.718;9.514;2023-12-07T03:55:44;16.15;;;11.18;;
1585;SDS011;786;48.718;9.514;2023-12-07T03:58:10;19.15;;;11.15;;
1585;SDS011;786;48.718;9.514;2023-12-07T04:00:38;19.02;;;12.00;;
1585;SDS011;786;48.718;9.514;2023-12-07T04:03:04;18.45;;;10.73;;
1585;SDS011;786;48.718;9.514;2023-12-07T04:05:31;15.32;;;10.88;;
1585;SDS011;786;48.718;9.514;2023-12-07T04:07:57;13.88;;;9.52;;
1585;SDS011;786;48.718;9.514;2023-12-07T04:10:25;16.67;;;10.82;;
1585;SDS011;786;48.718;9.514;2023-12-07T04:12:51;15.80;;;9.68;;
1585;SDS011;786;48.718;9.514;2023-12-07T04:15:18;17.58;;;10.82;;
1585;SDS011;786;48.718;9.514;2023-12-07T04:17:45;14.27;;;10.13;;
1585;SDS011;786;48.718;9.514;2023-12-07T04:20:11;15.38;;;10.35;;
1585;SDS011;786;48.718;9.514;2023-12-07T04:22:38;15.57;;;11.02;;
1585;SDS011;786;48.718;9.514;2023-12-07T04:25:05;18.17;;;11.02;;
1585;SDS011;786;48.718;9.514;2023-12-07T04:27:33;19.65;;;10.55;;
1585;SDS011;786;48.718;9.514;2023-12-07T04:29:59;15.82;;;9.70;;
1585;SDS011;786;48.718;9.514;2023-12-07T04:32:26;15.45;;;9.80;;
1585;SDS011;786;48.718;9.514;2023-12-07T04:34:52;16.70;;;10.55;;
1585;SDS011;786;48.718;9.514;2023-12-07T04:37:18;16.85;;;10.48;;
1585;SDS011;786;48.718;9.514;2023-12-07T04:39:45;14.93;;;9.20;;
1585;SDS011;786;48.718;9.514;2023-12-07T04:42:11;17.42;;;9.95;;
1585;SDS011;786;48.718;9.514;2023-12-07T04:44:39;15.23;;;9.88;;
1585;SDS011;786;48.718;9.514;2023-12-07T04:47:05;14.30;;;9.60;;
1585;SDS011;786;48.718;9.514;2023-12-07T04:49:31;14.00;;;9.88;;
1585;SDS011;786;48.718;9.514;2023-12-07T04:51:58;15.65;;;11.80;;
1585;SDS011;786;48.718;9.514;2023-12-07T04:54:24;16.40;;;10.75;;
1585;SDS011;786;48.718;9.514;2023-12-07T04:56:52;16.10;;;11.00;;
1585;SDS011;786;48.718;9.514;2023-12-07T04:59:19;15.73;;;10.20;;
1585;SDS011;786;48.718;9.514;2023-12-07T05:01:47;17.20;;;11.32;;
1585;SDS011;786;48.718;9.514;2023-12-07T05:04:14;16.38;;;10.43;;
1585;SDS011;786;48.718;9.514;2023-12-07T05:06:40;16.08;;;8.93;;
1585;SDS011;786;48.718;9.514;2023-12-07T05:09:06;15.00;;;9.13;;
1585;SDS011;786;48.718;9.514;2023-12-07T05:11:34;17.50;;;10.45;;
1585;SDS011;786;48.718;9.514;2023-12-07T05:14:01;14.05;;;9.10;;
1585;SDS011;786;48.718;9.514;2023-12-07T05:16:28;18.10;;;11.57;;
1585;SDS011;786;48.718;9.514;2023-12-07T05:18:56;16.73;;;10.60;;
1585;SDS011;786;48.718;9.514;2023-12-07T05:21:22;15.77;;;10.13;;
1585;SDS011;786;48.718;9.514;2023-12-07T05:23:49;17.42;;;9.60;;
1585;SDS011;786;48.718;9.514;2023-12-07T05:26:15;19.40;;;11.00;;
1585;SDS011;786;48.718;9.514;2023-12-07T05:28:42;14.60;;;9.93;;
1585;SDS011;786;48.718;9.514;2023-12-07T05:31:09;18.52;;;12.68;;
1585;SDS011;786;48.718;9.514;2023-12-07T05:33:35;19.52;;;11.43;;
1585;SDS011;786;48.718;9.514;2023-12-07T05:36:03;19.65;;;10.70;;
1585;SDS011;786;48.718;9.514;2023-12-07T05:38:30;15.68;;;11.68;;
1585;SDS011;786;48.718;9.514;2023-12-07T05:40:56;22.27;;;13.30;;
1585;SDS011;786;48.718;9.514;2023-12-07T05:43:22;15.43;;;10.70;;
1585;SDS011;786;48.718;9.514;2023-12-07T05:45:49;16.45;;;10.68;;
1585;SDS011;786;48.718;9.514;2023-12-07T05:48:15;17.15;;;11.45;;
1585;SDS011;786;48.718;9.514;2023-12-07T05:50:41;14.07;;;9.55;;
1585;SDS011;786;48.718;9.514;2023-12-07T05:53:09;16.05;;;9.93;;
1585;SDS011;786;48.718;9.514;2023-12-07T05:55:36;17.70;;;9.82;;
1585;SDS011;786;48.718;9.514;2023-12-07T05:58:02;14.52;;;9.63;;
1585;SDS011;786;48.718;9.514;2023-12-07T06:00:29;15.40;;;8.95;;
1585;SDS011;786;48.718;9.514;2023-12-07T06:02:56;16.23;;;9.43;;
1585;SDS011;786;48.718;9.514;2023-12-07T06:05:23;15.52;;;10.95;;
1585;SDS011;786;48.718;9.514;2023-12-07T06:07:49;18.42;;;10.57;;
1585;SDS011;786;48.718;9.514;2023-12-07T06:10:17;16.90;;;9.57;;
1585;SDS011;786;48.718;9.514;2023-12-07T06:12:43;20.52;;;11.15;;
1585;SDS011;786;48.718;9.514;2023-12-07T06:15:09;17.85;;;10.60;;
1585;SDS011;786;48.718;9.514;2023-12-07T06:17:36;17.40;;;8.70;;
1585;SDS011;786;48.718;9.514;2023-12-07T06:20:02;20.20;;;10.02;;
1585;SDS011;786;48.718;9.514;2023-12-07T06:22:29;20.10;;;10.38;;
1585;SDS011;786;48.718;9.514;2023-12-07T06:24:56;15.90;;;9.77;;
1585;SDS011;786;48.718;9.514;2023-12-07T06:27:24;16.13;;;9.77;;
1585;SDS011;786;48.718;9.514;2023-12-07T06:29:50;19.83;;;9.65;;
1585;SDS011;786;48.718;9.514;2023-12-07T06:32:16;18.52;;;10.90;;
1585;SDS011;786;48.718;9.514;2023-12-07T06:34:43;15.73;;;9.95;;
1585;SDS011;786;48.718;9.514;2023-12-07T06:37:09;14.93;;;9.38;;
1585;SDS011;786;48.718;9.514;2023-12-07T06:39:36;19.10;;;11.07;;
1585;SDS011;786;48.718;9.514;2023-12-07T06:42:03;19.58;;;11.00;;
1585;SDS011;786;48.718;9.514;2023-12-07T06:44:31;19.90;;;10.30;;
1585;SDS011;786;48.718;9.514;2023-12-07T06:46:57;22.23;;;10.40;;
1585;SDS011;786;48.718;9.514;2023-12-07T06:49:24;40.25;;;13.52;;
1585;SDS011;786;48.718;9.514;2023-12-07T06:51:50;67.25;;;15.75;;
1585;SDS011;786;48.718;9.514;2023-12-07T06:54:16;36.50;;;13.80;;
1585;SDS011;786;48.718;9.514;2023-12-07T06:56:43;51.42;;;15.77;;
1585;SDS011;786;48.718;9.514;2023-12-07T06:59:09;46.25;;;14.75;;
1585;SDS011;786;48.718;9.514;2023-12-07T07:01:37;57.15;;;15.00;;
1585;SDS011;786;48.718;9.514;2023-12-07T07:04:04;62.38;;;14.95;;
1585;SDS011;786;48.718;9.514;2023-12-07T07:06:30;49.50;;;14.88;;
1585;SDS011;786;48.718;9.514;2023-12-07T07:08:56;42.65;;;13.90;;
1585;SDS011;786;48.718;9.514;2023-12-07T07:11:23;32.50;;;14.68;;
1585;SDS011;786;48.718;9.514;2023-12-07T07:13:49;33.38;;;13.77;;
1585;SDS011;786;48.718;9.514;2023-12-07T07:16:16;56.05;;;13.93;;
1585;SDS011;786;48.718;9.514;2023-12-07T07:18:43;94.68;;;17.52;;
1585;SDS011;786;48.718;9.514;2023-12-07T07:21:10;116.65;;;19.17;;
1585;SDS011;786;48.718;9.514;2023-12-07T07:23:36;82.95;;;17.75;;
1585;SDS011;786;48.718;9.514;2023-12-07T07:26:03;50.00;;;13.88;;
1585;SDS011;786;48.718;9.514;2023-12-07T07:28:29;101.55;;;21.15;;
1585;SDS011;786;48.718;9.514;2023-12-07T07:30:56;56.17;;;14.20;;
1585;SDS011;786;48.718;9.514;2023-12-07T07:33:22;65.90;;;15.05;;
1585;SDS011;786;48.718;9.514;2023-12-07T07:35:50;72.53;;;15.50;;
1585;SDS011;786;48.718;9.514;2023-12-07T07:38:16;102.55;;;18.95;;
1585;SDS011;786;48.718;9.514;2023-12-07T07:40:43;58.63;;;13.48;;
1585;SDS011;786;48.718;9.514;2023-12-07T07:43:10;87.00;;;16.70;;
1585;SDS011;786;48.718;9.514;2023-12-07T07:45:36;78.82;;;15.75;;
1585;SDS011;786;48.718;9.514;2023-12-07T07:48:03;52.55;;;15.95;;
1585;SDS011;786;48.718;9.514;2023-12-07T07:50:29;69.70;;;14.98;;
1585;SDS011;786;48.718;9.514;2023-12-07T07:52:57;44.10;;;13.82;;
1585;SDS011;786;48.718;9.514;2023-12-07T07:55:23;28.35;;;13.52;;
1585;SDS011;786;48.718;9.514;2023-12-07T07:57:50;25.50;;;12.55;;
1585;SDS011;786;48.718;9.514;2023-12-07T08:00:16;27.38;;;12.88;;
1585;SDS011;786;48.718;9.514;2023-12-07T08:02:44;118.50;;;24.50;;
1585;SDS011;786;48.718;9.514;2023-12-07T08:05:10;141.07;;;28.25;;
1585;SDS011;786;48.718;9.514;2023-12-07T08:07:37;248.57;;;43.22;;
1585;SDS011;786;48.718;9.514;2023-12-07T08:10:06;22.95;;;13.40;;
1585;SDS011;786;48.718;9.514;2023-12-07T08:12:33;29.73;;;14.00;;
1585;SDS011;786;48.718;9.514;2023-12-07T08:15:00;164.80;;;31.63;;
1585;SDS011;786;48.718;9.514;2023-12-07T08:17:26;103.47;;;26.42;;
1585;SDS011;786;48.718;9.514;2023-12-07T08:19:53;92.13;;;27.38;;
1585;SDS011;786;48.718;9.514;2023-12-07T08:22:19;20.40;;;13.25;;
1585;SDS011;786;48.718;9.514;2023-12-07T08:24:46;32.08;;;14.60;;
1585;SDS011;786;48.718;9.514;2023-12-07T08:27:13;58.85;;;18.83;;
1585;SDS011;786;48.718;9.514;2023-12-07T08:29:40;64.00;;;15.82;;
1585;SDS011;786;48.718;9.514;2023-12-07T08:32:06;49.10;;;13.15;;
1585;SDS011;786;48.718;9.514;2023-12-07T08:34:33;117.60;;;19.50;;
1585;SDS011;786;48.718;9.514;2023-12-07T08:36:59;286.42;;;36.20;;
1585;SDS011;786;48.718;9.514;2023-12-07T08:39:25;71.13;;;15.23;;
1585;SDS011;786;48.718;9.514;2023-12-07T08:41:52;123.45;;;18.00;;
1585;SDS011;786;48.718;9.514;2023-12-07T08:44:20;89.68;;;17.10;;
1585;SDS011;786;48.718;9.514;2023-12-07T08:46:46;84.38;;;15.20;;
1585;SDS011;786;48.718;9.514;2023-12-07T08:49:13;120.00;;;16.67;;
1585;SDS011;786;48.718;9.514;2023-12-07T08:51:40;162.63;;;19.98;;
1585;SDS011;786;48.718;9.514;2023-12-07T08:54:06;138.88;;;17.10;;
1585;SDS011;786;48.718;9.514;2023-12-07T08:56:32;197.90;;;24.05;;
1585;SDS011;786;48.718;9.514;2023-12-07T08:58:59;185.25;;;23.25;;
1585;SDS011;786;48.718;9.514;2023-12-07T09:01:26;184.30;;;21.80;;
1585;SDS011;786;48.718;9.514;2023-12-07T09:03:52;59.70;;;12.30;;
1585;SDS011;786;48.718;9.514;2023-12-07T09:06:19;56.53;;;11.70;;
1585;SDS011;786;48.718;9.514;2023-12-07T09:08:45;35.90;;;11.10;;
1585;SDS011;786;48.718;9.514;2023-12-07T09:11:11;61.10;;;10.40;;
1585;SDS011;786;48.718;9.514;2023-12-07T09:13:38;60.17;;;11.75;;
1585;SDS011;786;48.718;9.514;2023-12-07T09:16:05;68.82;;;11.40;;
1585;SDS011;786;48.718;9.514;2023-12-07T09:18:34;43.92;;;11.52;;
1585;SDS011;786;48.718;9.514;2023-12-07T09:21:00;33.90;;;9.55;;
1585;SDS011;786;48.718;9.514;2023-12-07T09:23:26;31.77;;;10.45;;
1585;SDS011;786;48.718;9.514;2023-12-07T09:25:53;24.15;;;9.02;;
1585;SDS011;786;48.718;9.514;2023-12-07T09:28:19;15.55;;;9.05;;
1585;SDS011;786;48.718;9.514;2023-12-07T09:30:46;14.35;;;7.47;;
1585;SDS011;786;48.718;9.514;2023-12-07T09:33:12;8.32;;;7.05;;
1585;SDS011;786;48.718;9.514;2023-12-07T09:35:40;8.85;;;7.63;;
1585;SDS011;786;48.718;9.514;2023-12-07T09:38:06;9.50;;;7.53;;
1585;SDS011;786;48.718;9.514;2023-12-07T09:40:33;7.95;;;7.05;;
1585;SDS011;786;48.718;9.514;2023-12-07T09:42:59;8.38;;;7.15;;
1585;SDS011;786;48.718;9.514;2023-12-07T09:45:26;7.93;;;7.13;;
1585;SDS011;786;48.718;9.514;2023-12-07T09:47:52;8.52;;;7.78;;
1585;SDS011;786;48.718;9.514;2023-12-07T09:50:20;9.45;;;8.38;;
1585;SDS011;786;48.718;9.514;2023-12-07T09:52:49;12.43;;;11.18;;
1585;SDS011;786;48.718;9.514;2023-12-07T09:55:16;13.43;;;12.02;;
1585;SDS011;786;48.718;9.514;2023-12-07T09:57:42;12.48;;;11.27;;
1585;SDS011;786;48.718;9.514;2023-12-07T10:00:10;11.57;;;10.43;;
1585;SDS011;786;48.718;9.514;2023-12-07T10:02:39;12.10;;;10.98;;
1585;SDS011;786;48.718;9.514;2023-12-07T10:05:06;12.15;;;10.90;;
1585;SDS011;786;48.718;9.514;2023-12-07T10:07:35;11.70;;;10.52;;
1585;SDS011;786;48.718;9.514;2023-12-07T10:10:04;13.18;;;11.98;;
1585;SDS011;786;48.718;9.514;2023-12-07T10:12:31;13.00;;;11.70;;
1585;SDS011;786;48.718;9.514;2023-12-07T10:14:59;13.73;;;12.27;;
1585;SDS011;786;48.718;9.514;2023-12-07T10:17:26;13.00;;;11.65;;
1585;SDS011;786;48.718;9.514;2023-12-07T10:20:09;12.45;;;11.25;;
1585;SDS011;786;48.718;9.514;2023-12-07T10:22:37;13.20;;;11.98;;
1585;SDS011;786;48.718;9.514;2023-12-07T10:25:06;13.15;;;12.05;;
1585;SDS011;786;48.718;9.514;2023-12-07T10:27:33;14.13;;;12.77;;
1585;SDS011;786;48.718;9.514;2023-12-07T10:30:00;13.70;;;12.45;;
1585;SDS011;786;48.718;9.514;2023-12-07T10:32:26;13.07;;;12.07;;
1585;SDS011;786;48.718;9.514;2023-12-07T10:34:53;12.48;;;11.32;;
1585;SDS011;786;48.718;9.514;2023-12-07T10:37:21;12.73;;;11.55;;
1585;SDS011;786;48.718;9.514;2023-12-07T10:39:48;12.35;;;11.27;;
1585;SDS011;786;48.718;9.514;2023-12-07T10:42:16;12.02;;;11.02;;
1585;SDS011;786;48.718;9.514;2023-12-07T10:44:43;14.75;;;10.88;;
1585;SDS011;786;48.718;9.514;2023-12-07T10:47:10;11.80;;;10.80;;
1585;SDS011;786;48.718;9.514;2023-12-07T10:49:37;11.18;;;10.07;;
1585;SDS011;786;48.718;9.514;2023-12-07T10:52:06;10.93;;;9.93;;
1585;SDS011;786;48.718;9.514;2023-12-07T10:54:35;12.27;;;11.18;;
1585;SDS011;786;48.718;9.514;2023-12-07T10:57:05;10.55;;;9.65;;
1585;SDS011;786;48.718;9.514;2023-12-07T10:59:33;11.57;;;10.57;;
1585;SDS011;786;48.718;9.514;2023-12-07T11:02:01;11.35;;;10.25;;
1585;SDS011;786;48.718;9.514;2023-12-07T11:04:28;9.77;;;8.88;;
1585;SDS011;786;48.718;9.514;2023-12-07T11:06:56;10.85;;;9.80;;
1585;SDS011;786;48.718;9.514;2023-12-07T11:09:25;10.48;;;9.15;;
1585;SDS011;786;48.718;9.514;2023-12-07T11:11:54;8.25;;;7.50;;
1585;SDS011;786;48.718;9.514;2023-12-07T11:14:23;10.60;;;9.70;;
1585;SDS011;786;48.718;9.514;2023-12-07T11:16:52;9.52;;;8.73;;
1585;SDS011;786;48.718;9.514;2023-12-07T11:22:10;8.52;;;7.75;;
1585;SDS011;786;48.718;9.514;2023-12-07T11:24:37;8.90;;;8.10;;
1585;SDS011;786;48.718;9.514;2023-12-07T11:27:05;11.93;;;8.18;;
1585;SDS011;786;48.718;9.514;2023-12-07T11:29:31;9.68;;;8.88;;
1585;SDS011;786;48.718;9.514;2023-12-07T11:32:01;8.68;;;7.97;;
1585;SDS011;786;48.718;9.514;2023-12-07T11:34:35;8.52;;;7.72;;
1585;SDS011;786;48.718;9.514;2023-12-07T11:37:01;9.38;;;8.05;;
1585;SDS011;786;48.718;9.514;2023-12-07T11:39:28;7.57;;;6.97;;
1585;SDS011;786;48.718;9.514;2023-12-07T11:41:55;6.75;;;6.15;;
1585;SDS011;786;48.718;9.514;2023-12-07T11:44:24;7.45;;;6.68;;
1585;SDS011;786;48.718;9.514;2023-12-07T11:46:50;8.52;;;7.82;;
1585;SDS011;786;48.718;9.514;2023-12-07T11:49:17;7.53;;;6.85;;
1585;SDS011;786;48.718;9.514;2023-12-07T11:51:44;7.55;;;6.95;;
1585;SDS011;786;48.718;9.514;2023-12-07T11:54:10;7.75;;;7.05;;
1585;SDS011;786;48.718;9.514;2023-12-07T11:56:36;7.35;;;6.75;;
1585;SDS011;786;48.718;9.514;2023-12-07T11:59:03;7.28;;;6.63;;
1585;SDS011;786;48.718;9.514;2023-12-07T12:01:29;7.30;;;6.57;;
1585;SDS011;786;48.718;9.514;2023-12-07T12:03:56;6.45;;;5.43;;
1585;SDS011;786;48.718;9.514;2023-12-07T12:06:24;5.93;;;5.32;;
1585;SDS011;786;48.718;9.514;2023-12-07T12:08:51;6.60;;;6.10;;
1585;SDS011;786;48.718;9.514;2023-12-07T12:11:18;6.50;;;5.90;;
1585;SDS011;786;48.718;9.514;2023-12-07T12:13:44;7.13;;;6.53;;
1585;SDS011;786;48.718;9.514;2023-12-07T12:16:11;5.13;;;4.38;;
1585;SDS011;786;48.718;9.514;2023-12-07T12:18:38;5.22;;;4.82;;
1585;SDS011;786;48.718;9.514;2023-12-07T12:21:06;4.88;;;4.47;;
1585;SDS011;786;48.718;9.514;2023-12-07T12:23:35;4.07;;;3.78;;
1585;SDS011;786;48.718;9.514;2023-12-07T12:26:01;3.65;;;3.10;;
1585;SDS011;786;48.718;9.514;2023-12-07T12:28:28;3.90;;;3.60;;
1585;SDS011;786;48.718;9.514;2023-12-07T12:30:54;3.42;;;3.13;;
1585;SDS011;786;48.718;9.514;2023-12-07T12:33:21;3.10;;;2.80;;
1585;SDS011;786;48.718;9.514;2023-12-07T12:35:58;3.45;;;3.15;;
1585;SDS011;786;48.718;9.514;2023-12-07T12:38:27;3.65;;;3.35;;
1585;SDS011;786;48.718;9.514;2023-12-07T12:40:55;3.53;;;3.03;;
1585;SDS011;786;48.718;9.514;2023-12-07T12:43:21;2.97;;;2.58;;
1585;SDS011;786;48.718;9.514;2023-12-07T12:45:48;2.90;;;2.70;;
1585;SDS011;786;48.718;9.514;2023-12-07T12:48:14;3.92;;;2.95;;
1585;SDS011;786;48.718;9.514;2023-12-07T12:50:41;3.67;;;3.38;;
1585;SDS011;786;48.718;9.514;2023-12-07T12:53:08;3.38;;;2.53;;
1585;SDS011;786;48.718;9.514;2023-12-07T12:55:35;3.13;;;2.92;;
1585;SDS011;786;48.718;9.514;2023-12-07T12:58:03;2.85;;;2.47;;
1585;SDS011;786;48.718;9.514;2023-12-07T13:00:30;2.97;;;2.75;;
1585;SDS011;786;48.718;9.514;2023-12-07T13:02:57;3.75;;;2.60;;
1585;SDS011;786;48.718;9.514;2023-12-07T13:05:24;2.65;;;2.33;;
1585;SDS011;786;48.718;9.514;2023-12-07T13:07:51;3.75;;;2.40;;
1585;SDS011;786;48.718;9.514;2023-12-07T13:10:17;2.83;;;2.33;;
1585;SDS011;786;48.718;9.514;2023-12-07T13:12:43;2.80;;;2.60;;
1585;SDS011;786;48.718;9.514;2023-12-07T13:15:11;2.40;;;2.20;;
1585;SDS011;786;48.718;9.514;2023-12-07T13:17:38;3.08;;;2.78;;
1585;SDS011;786;48.718;9.514;2023-12-07T13:20:05;2.25;;;2.05;;
1585;SDS011;786;48.718;9.514;2023-12-07T13:22:33;3.05;;;2.75;;
1585;SDS011;786;48.718;9.514;2023-12-07T13:24:59;2.30;;;2.10;;
1585;SDS011;786;48.718;9.514;2023-12-07T13:27:26;2.67;;;2.47;;
1585;SDS011;786;48.718;9.514;2023-12-07T13:29:53;3.03;;;2.70;;
1585;SDS011;786;48.718;9.514;2023-12-07T13:32:21;2.05;;;1.92;;
1585;SDS011;786;48.718;9.514;2023-12-07T13:34:48;2.28;;;2.05;;
1585;SDS011;786;48.718;9.514;2023-12-07T13:37:15;3.20;;;2.70;;
1585;SDS011;786;48.718;9.514;2023-12-07T13:39:42;3.00;;;2.67;;
1585;SDS011;786;48.718;9.514;2023-12-07T13:42:08;3.05;;;2.40;;
1585;SDS011;786;48.718;9.514;2023-12-07T13:44:35;3.75;;;3.03;;
1585;SDS011;786;48.718;9.514;2023-12-07T13:47:02;2.53;;;2.22;;
1585;SDS011;786;48.718;9.514;2023-12-07T13:49:30;2.45;;;2.25;;
1585;SDS011;786;48.718;9.514;2023-12-07T13:51:56;2.50;;;2.30;;
1585;SDS011;786;48.718;9.514;2023-12-07T13:54:25;2.08;;;1.85;;
1585;SDS011;786;48.718;9.514;2023-12-07T13:56:51;2.72;;;2.53;;
1585;SDS011;786;48.718;9.514;2023-12-07T13:59:18;3.70;;;2.58;;
1585;SDS011;786;48.718;9.514;2023-12-07T14:01:44;3.97;;;2.58;;
1585;SDS011;786;48.718;9.514;2023-12-07T14:04:11;4.53;;;2.28;;
1585;SDS011;786;48.718;9.514;2023-12-07T14:06:38;3.75;;;2.28;;
1585;SDS011;786;48.718;9.514;2023-12-07T14:09:05;2.42;;;2.22;;
1585;SDS011;786;48.718;9.514;2023-12-07T14:11:31;4.32;;;2.70;;
1585;SDS011;786;48.718;9.514;2023-12-07T14:13:57;2.65;;;1.85;;
1585;SDS011;786;48.718;9.514;2023-12-07T14:16:24;2.08;;;1.83;;
1585;SDS011;786;48.718;9.514;2023-12-07T14:18:50;2.63;;;2.33;;
1585;SDS011;786;48.718;9.514;2023-12-07T14:21:20;3.25;;;2.20;;
1585;SDS011;786;48.718;9.514;2023-12-07T14:23:48;2.70;;;2.50;;
1585;SDS011;786;48.718;9.514;2023-12-07T14:26:14;3.10;;;2.45;;
1585;SDS011;786;48.718;9.514;2023-12-07T14:28:41;2.78;;;2.58;;
1585;SDS011;786;48.718;9.514;2023-12-07T14:31:08;2.83;;;2.20;;
1585;SDS011;786;48.718;9.514;2023-12-07T14:36:06;2.85;;;2.58;;
1585;SDS011;786;48.718;9.514;2023-12-07T14:38:35;3.35;;;3.05;;
1585;SDS011;786;48.718;9.514;2023-12-07T14:41:03;3.85;;;2.63;;
1585;SDS011;786;48.718;9.514;2023-12-07T14:43:29;4.30;;;3.10;;
1585;SDS011;786;48.718;9.514;2023-12-07T14:45:56;3.30;;;3.00;;
1585;SDS011;786;48.718;9.514;2023-12-07T14:48:22;4.00;;;2.50;;
1585;SDS011;786;48.718;9.514;2023-12-07T14:50:49;4.38;;;3.08;;
1585;SDS011;786;48.718;9.514;2023-12-07T14:53:17;2.67;;;2.38;;
1585;SDS011;786;48.718;9.514;2023-12-07T14:55:44;4.20;;;3.67;;
1585;SDS011;786;48.718;9.514;2023-12-07T14:58:12;4.35;;;2.53;;
1585;SDS011;786;48.718;9.514;2023-12-07T15:00:39;3.50;;;3.20;;
1585;SDS011;786;48.718;9.514;2023-12-07T15:03:06;3.95;;;3.38;;
1585;SDS011;786;48.718;9.514;2023-12-07T15:05:32;3.65;;;3.28;;
1585;SDS011;786;48.718;9.514;2023-12-07T15:07:58;4.47;;;2.80;;
1585;SDS011;786;48.718;9.514;2023-12-07T15:10:25;4.70;;;3.10;;
1585;SDS011;786;48.718;9.514;2023-12-07T15:12:51;4.32;;;3.15;;
1585;SDS011;786;48.718;9.514;2023-12-07T15:15:19;3.88;;;3.40;;